Airfield :
LOGIN :

Register | Disclaimer

   EN    FR    IT 

 










Legend :    VFR   Marginal VFR   IFR   Intensive IFR   Very Intensive IFR
Visi :
Ceiling :
>= 8 km
>= 3000ft
5 to 8 km
1000 to 3000 ft
1500m to 5 km
500 to 1000 ft
800 to 1500m
200 to 500 ft
< 800m
< 200 ft
Symbols :   Thunderstorms  Fog  Heavy snow  Heavy precipitations  Wind > 20 kt
SIGMETs :     Misc.  Thunderstorms  Icing  Turbulence  Mountain Waves  Volcanic Ashes






- Airport Elevation : 280 ft
- IATA code : FAE


EKVG - Vagar

CURRENT METAR :
  • 162120Z AUTO 35020KT 9999 NCD 08/05 Q1009 RMK NCD WIND SKEID 36034G46KT

EXPIRED METARs :
  • 162050Z AUTO 35020KT 9999 FEW017/// 08/06 Q1009 RMK FEW067/// WIND SKEID 36032G48KT
  • 162020Z AUTO 36019KT 9999 FEW015/// 09/06 Q1008 RMK NCD WIND SKEID 35030G46KT
  • 161950Z AUTO 35018KT 9999 FEW017/// 09/06 Q1008 RMK NCD WIND SKEID 35023G45KT 290V050
  • 161920Z AUTO 35020KT 9999 FEW015/// 09/06 Q1008 RMK FEW008/// WIND SKEID 35029G44KT
  • 161850Z AUTO 35016KT 9999 NCD 09/06 Q1008 RMK SCT008/// WIND SKEID 01028G39KT
  • 161820Z AUTO 35018KT 9999 FEW022/// 09/06 Q1008 RMK FEW008/// WIND SKEID 36023G41KT 310V030
  • 161750Z AUTO 35019KT 9999 FEW018/// 10/06 Q1008 RMK SCT009/// WIND SKEID 36029KT
  • 161720Z AUTO 35019KT 9999 FEW018/// 10/06 Q1008 RMK SCT008/// WIND SKEID 36026G41KT
  • 161650Z AUTO 35018KT 9999 FEW019/// SCT070/// 10/06 Q1007 RMK FEW067/// WIND SKEID 35016G34KT 260V050

TAF TAF EKVG
Valid from the 16 at 17:00 until the 17 at 00:00 UTC


161723Z 1617/1624 36020KT 9999 SCT020
TEMPO 1617/1621 36024G34KT



MET'MAP, your aeronautical weather chart ! - Copyright ORBIFLY December 2007 - Disclaimer

ORBIFLY MET'MAP TEAM :

Programming & Development : Alexandra Zaïnal
Original concept : Baudouin d'Aumeries
Technical & hardware support : Manuel Goepfert
Assistance : Marc-Olivier Méhu




SOURCES & CREDITS :

   NOAA